sensor_id;sensor_type;location;lat;lon;timestamp;P1;durP1;ratioP1;P2;durP2;ratioP2
43070;SDS011;36278;47.952;21.714;2023-03-23T00:01:55;26.80;;;18.40;;
43070;SDS011;36278;47.952;21.714;2023-03-23T00:04:21;26.57;;;18.67;;
43070;SDS011;36278;47.952;21.714;2023-03-23T00:06:47;25.13;;;16.50;;
43070;SDS011;36278;47.952;21.714;2023-03-23T00:09:14;30.67;;;19.87;;
43070;SDS011;36278;47.952;21.714;2023-03-23T00:11:40;28.40;;;18.33;;
43070;SDS011;36278;47.952;21.714;2023-03-23T00:14:07;30.97;;;18.77;;
43070;SDS011;36278;47.952;21.714;2023-03-23T00:16:38;26.23;;;17.80;;
43070;SDS011;36278;47.952;21.714;2023-03-23T00:19:07;24.23;;;19.10;;
43070;SDS011;36278;47.952;21.714;2023-03-23T00:21:36;28.10;;;18.43;;
43070;SDS011;36278;47.952;21.714;2023-03-23T00:26:32;25.87;;;18.73;;
43070;SDS011;36278;47.952;21.714;2023-03-23T00:28:59;26.73;;;17.43;;
43070;SDS011;36278;47.952;21.714;2023-03-23T00:31:27;22.03;;;17.40;;
43070;SDS011;36278;47.952;21.714;2023-03-23T00:33:56;22.60;;;17.07;;
43070;SDS011;36278;47.952;21.714;2023-03-23T00:36:23;25.20;;;17.40;;
43070;SDS011;36278;47.952;21.714;2023-03-23T00:38:49;24.13;;;17.97;;
43070;SDS011;36278;47.952;21.714;2023-03-23T00:41:15;26.87;;;17.60;;
43070;SDS011;36278;47.952;21.714;2023-03-23T00:43:40;26.60;;;17.83;;
43070;SDS011;36278;47.952;21.714;2023-03-23T00:46:06;26.97;;;17.63;;
43070;SDS011;36278;47.952;21.714;2023-03-23T00:48:35;23.30;;;17.60;;
43070;SDS011;36278;47.952;21.714;2023-03-23T00:51:05;28.17;;;17.77;;
43070;SDS011;36278;47.952;21.714;2023-03-23T00:53:37;22.90;;;17.03;;
43070;SDS011;36278;47.952;21.714;2023-03-23T00:56:03;22.93;;;16.97;;
43070;SDS011;36278;47.952;21.714;2023-03-23T00:58:29;24.80;;;18.33;;
43070;SDS011;36278;47.952;21.714;2023-03-23T01:00:55;25.20;;;19.03;;
43070;SDS011;36278;47.952;21.714;2023-03-23T01:03:21;25.63;;;17.40;;
43070;SDS011;36278;47.952;21.714;2023-03-23T01:05:50;24.33;;;17.83;;
43070;SDS011;36278;47.952;21.714;2023-03-23T01:08:17;25.47;;;17.93;;
43070;SDS011;36278;47.952;21.714;2023-03-23T01:10:44;24.40;;;17.40;;
43070;SDS011;36278;47.952;21.714;2023-03-23T01:13:10;23.17;;;17.00;;
43070;SDS011;36278;47.952;21.714;2023-03-23T01:15:36;25.77;;;18.77;;
43070;SDS011;36278;47.952;21.714;2023-03-23T01:18:02;25.93;;;17.07;;
43070;SDS011;36278;47.952;21.714;2023-03-23T01:20:28;24.00;;;18.07;;
43070;SDS011;36278;47.952;21.714;2023-03-23T01:22:56;27.23;;;18.23;;
43070;SDS011;36278;47.952;21.714;2023-03-23T01:25:26;29.13;;;18.33;;
43070;SDS011;36278;47.952;21.714;2023-03-23T01:27:56;26.27;;;17.50;;
43070;SDS011;36278;47.952;21.714;2023-03-23T01:30:22;24.90;;;17.73;;
43070;SDS011;36278;47.952;21.714;2023-03-23T01:32:48;24.53;;;17.83;;
43070;SDS011;36278;47.952;21.714;2023-03-23T01:35:15;27.73;;;17.43;;
43070;SDS011;36278;47.952;21.714;2023-03-23T01:37:41;23.63;;;17.20;;
43070;SDS011;36278;47.952;21.714;2023-03-23T01:40:06;23.77;;;17.03;;
43070;SDS011;36278;47.952;21.714;2023-03-23T01:42:35;26.23;;;17.90;;
43070;SDS011;36278;47.952;21.714;2023-03-23T01:48:07;24.03;;;16.40;;
43070;SDS011;36278;47.952;21.714;2023-03-23T01:53:16;23.57;;;17.73;;
43070;SDS011;36278;47.952;21.714;2023-03-23T01:55:43;23.50;;;17.47;;
43070;SDS011;36278;47.952;21.714;2023-03-23T01:58:13;26.30;;;17.67;;
43070;SDS011;36278;47.952;21.714;2023-03-23T02:00:40;22.60;;;16.80;;
43070;SDS011;36278;47.952;21.714;2023-03-23T02:03:08;25.00;;;16.93;;
43070;SDS011;36278;47.952;21.714;2023-03-23T02:05:37;22.83;;;17.10;;
43070;SDS011;36278;47.952;21.714;2023-03-23T02:08:05;25.93;;;17.13;;
43070;SDS011;36278;47.952;21.714;2023-03-23T02:10:34;23.77;;;17.63;;
43070;SDS011;36278;47.952;21.714;2023-03-23T02:13:02;23.57;;;17.60;;
43070;SDS011;36278;47.952;21.714;2023-03-23T02:23:50;22.20;;;16.77;;
43070;SDS011;36278;47.952;21.714;2023-03-23T02:29:37;26.70;;;17.43;;
43070;SDS011;36278;47.952;21.714;2023-03-23T02:32:12;25.20;;;17.03;;
43070;SDS011;36278;47.952;21.714;2023-03-23T02:34:58;22.53;;;17.50;;
43070;SDS011;36278;47.952;21.714;2023-03-23T02:37:29;27.87;;;18.37;;
43070;SDS011;36278;47.952;21.714;2023-03-23T02:40:20;26.43;;;17.70;;
43070;SDS011;36278;47.952;21.714;2023-03-23T02:42:48;27.20;;;17.37;;
43070;SDS011;36278;47.952;21.714;2023-03-23T02:45:17;22.67;;;17.17;;
43070;SDS011;36278;47.952;21.714;2023-03-23T02:47:46;27.13;;;18.20;;
43070;SDS011;36278;47.952;21.714;2023-03-23T02:50:14;28.97;;;18.97;;
43070;SDS011;36278;47.952;21.714;2023-03-23T02:52:44;29.97;;;19.27;;
43070;SDS011;36278;47.952;21.714;2023-03-23T02:55:11;24.60;;;18.20;;
43070;SDS011;36278;47.952;21.714;2023-03-23T02:57:39;24.13;;;17.97;;
43070;SDS011;36278;47.952;21.714;2023-03-23T03:00:05;25.33;;;18.03;;
43070;SDS011;36278;47.952;21.714;2023-03-23T03:02:35;24.87;;;18.20;;
43070;SDS011;36278;47.952;21.714;2023-03-23T03:10:25;25.73;;;18.20;;
43070;SDS011;36278;47.952;21.714;2023-03-23T03:18:07;24.97;;;17.63;;
43070;SDS011;36278;47.952;21.714;2023-03-23T03:20:43;23.73;;;17.80;;
43070;SDS011;36278;47.952;21.714;2023-03-23T03:23:13;23.73;;;16.73;;
43070;SDS011;36278;47.952;21.714;2023-03-23T03:25:41;23.03;;;17.40;;
43070;SDS011;36278;47.952;21.714;2023-03-23T03:28:13;26.27;;;18.17;;
43070;SDS011;36278;47.952;21.714;2023-03-23T03:30:47;28.43;;;19.57;;
43070;SDS011;36278;47.952;21.714;2023-03-23T03:33:26;26.23;;;19.50;;
43070;SDS011;36278;47.952;21.714;2023-03-23T03:35:56;29.23;;;19.50;;
43070;SDS011;36278;47.952;21.714;2023-03-23T03:38:25;25.13;;;18.90;;
43070;SDS011;36278;47.952;21.714;2023-03-23T03:40:51;25.37;;;18.57;;
43070;SDS011;36278;47.952;21.714;2023-03-23T03:43:17;26.67;;;19.63;;
43070;SDS011;36278;47.952;21.714;2023-03-23T03:45:43;25.70;;;18.30;;
43070;SDS011;36278;47.952;21.714;2023-03-23T03:48:09;24.90;;;18.63;;
43070;SDS011;36278;47.952;21.714;2023-03-23T03:50:35;30.17;;;18.80;;
43070;SDS011;36278;47.952;21.714;2023-03-23T03:53:01;26.70;;;18.73;;
43070;SDS011;36278;47.952;21.714;2023-03-23T03:55:26;24.43;;;18.63;;
43070;SDS011;36278;47.952;21.714;2023-03-23T03:57:53;29.37;;;19.33;;
43070;SDS011;36278;47.952;21.714;2023-03-23T04:00:20;24.03;;;17.93;;
43070;SDS011;36278;47.952;21.714;2023-03-23T04:02:46;29.30;;;18.80;;
43070;SDS011;36278;47.952;21.714;2023-03-23T04:05:15;22.97;;;17.87;;
43070;SDS011;36278;47.952;21.714;2023-03-23T04:07:41;25.67;;;18.10;;
43070;SDS011;36278;47.952;21.714;2023-03-23T04:10:07;27.67;;;18.77;;
43070;SDS011;36278;47.952;21.714;2023-03-23T04:12:35;27.47;;;19.20;;
43070;SDS011;36278;47.952;21.714;2023-03-23T04:15:01;26.80;;;18.30;;
43070;SDS011;36278;47.952;21.714;2023-03-23T04:17:27;29.50;;;18.50;;
43070;SDS011;36278;47.952;21.714;2023-03-23T04:19:53;26.13;;;17.93;;
43070;SDS011;36278;47.952;21.714;2023-03-23T04:22:25;26.00;;;18.67;;
43070;SDS011;36278;47.952;21.714;2023-03-23T04:24:55;29.23;;;18.42;;
43070;SDS011;36278;47.952;21.714;2023-03-23T04:27:24;25.43;;;17.63;;
43070;SDS011;36278;47.952;21.714;2023-03-23T04:29:50;28.70;;;18.13;;
43070;SDS011;36278;47.952;21.714;2023-03-23T04:32:16;29.13;;;18.97;;
43070;SDS011;36278;47.952;21.714;2023-03-23T04:34:43;23.20;;;18.70;;
43070;SDS011;36278;47.952;21.714;2023-03-23T04:37:09;29.20;;;19.77;;
43070;SDS011;36278;47.952;21.714;2023-03-23T04:39:35;27.93;;;20.33;;
43070;SDS011;36278;47.952;21.714;2023-03-23T04:42:00;26.93;;;18.30;;
43070;SDS011;36278;47.952;21.714;2023-03-23T04:44:27;27.70;;;19.90;;
43070;SDS011;36278;47.952;21.714;2023-03-23T04:46:53;26.70;;;19.00;;
43070;SDS011;36278;47.952;21.714;2023-03-23T04:49:19;29.70;;;19.33;;
43070;SDS011;36278;47.952;21.714;2023-03-23T04:51:46;29.00;;;20.03;;
43070;SDS011;36278;47.952;21.714;2023-03-23T04:54:13;30.27;;;20.33;;
43070;SDS011;36278;47.952;21.714;2023-03-23T04:56:39;28.00;;;20.23;;
43070;SDS011;36278;47.952;21.714;2023-03-23T04:59:06;29.03;;;20.17;;
43070;SDS011;36278;47.952;21.714;2023-03-23T05:01:32;33.17;;;21.60;;
43070;SDS011;36278;47.952;21.714;2023-03-23T05:03:59;25.50;;;19.93;;
43070;SDS011;36278;47.952;21.714;2023-03-23T05:06:25;27.87;;;18.93;;
43070;SDS011;36278;47.952;21.714;2023-03-23T05:08:51;27.67;;;20.00;;
43070;SDS011;36278;47.952;21.714;2023-03-23T05:11:16;30.60;;;20.60;;
43070;SDS011;36278;47.952;21.714;2023-03-23T05:13:41;26.23;;;18.87;;
43070;SDS011;36278;47.952;21.714;2023-03-23T05:16:09;28.53;;;19.63;;
43070;SDS011;36278;47.952;21.714;2023-03-23T05:18:34;28.73;;;19.93;;
43070;SDS011;36278;47.952;21.714;2023-03-23T05:21:03;28.63;;;18.53;;
43070;SDS011;36278;47.952;21.714;2023-03-23T05:23:29;29.07;;;20.17;;
43070;SDS011;36278;47.952;21.714;2023-03-23T05:25:56;28.50;;;20.00;;
43070;SDS011;36278;47.952;21.714;2023-03-23T05:28:27;27.93;;;19.83;;
43070;SDS011;36278;47.952;21.714;2023-03-23T05:30:53;27.07;;;17.93;;
43070;SDS011;36278;47.952;21.714;2023-03-23T05:33:20;28.60;;;18.40;;
43070;SDS011;36278;47.952;21.714;2023-03-23T05:35:46;27.10;;;18.80;;
43070;SDS011;36278;47.952;21.714;2023-03-23T05:38:13;27.40;;;17.67;;
43070;SDS011;36278;47.952;21.714;2023-03-23T05:40:40;36.07;;;19.50;;
43070;SDS011;36278;47.952;21.714;2023-03-23T05:43:07;30.03;;;19.37;;
43070;SDS011;36278;47.952;21.714;2023-03-23T05:45:33;25.10;;;17.87;;
43070;SDS011;36278;47.952;21.714;2023-03-23T05:47:59;29.13;;;18.87;;
43070;SDS011;36278;47.952;21.714;2023-03-23T05:50:24;24.10;;;17.77;;
43070;SDS011;36278;47.952;21.714;2023-03-23T05:52:50;28.07;;;18.10;;
43070;SDS011;36278;47.952;21.714;2023-03-23T05:55:16;23.60;;;18.47;;
43070;SDS011;36278;47.952;21.714;2023-03-23T05:57:41;24.77;;;18.67;;
43070;SDS011;36278;47.952;21.714;2023-03-23T06:00:08;27.93;;;18.67;;
43070;SDS011;36278;47.952;21.714;2023-03-23T06:02:38;31.00;;;19.23;;
43070;SDS011;36278;47.952;21.714;2023-03-23T06:05:04;29.67;;;19.40;;
43070;SDS011;36278;47.952;21.714;2023-03-23T06:07:30;29.70;;;19.10;;
43070;SDS011;36278;47.952;21.714;2023-03-23T06:09:56;26.50;;;19.07;;
43070;SDS011;36278;47.952;21.714;2023-03-23T06:12:21;27.87;;;18.83;;
43070;SDS011;36278;47.952;21.714;2023-03-23T06:14:47;38.23;;;19.33;;
43070;SDS011;36278;47.952;21.714;2023-03-23T06:17:14;24.57;;;18.70;;
43070;SDS011;36278;47.952;21.714;2023-03-23T06:19:41;26.63;;;18.87;;
43070;SDS011;36278;47.952;21.714;2023-03-23T06:22:07;28.07;;;18.77;;
43070;SDS011;36278;47.952;21.714;2023-03-23T06:24:32;25.57;;;18.27;;
43070;SDS011;36278;47.952;21.714;2023-03-23T06:26:58;28.93;;;18.40;;
43070;SDS011;36278;47.952;21.714;2023-03-23T06:29:24;31.60;;;18.83;;
43070;SDS011;36278;47.952;21.714;2023-03-23T06:31:52;25.17;;;18.33;;
43070;SDS011;36278;47.952;21.714;2023-03-23T06:34:21;25.87;;;18.57;;
43070;SDS011;36278;47.952;21.714;2023-03-23T06:36:46;26.13;;;19.73;;
43070;SDS011;36278;47.952;21.714;2023-03-23T06:39:12;30.80;;;19.13;;
43070;SDS011;36278;47.952;21.714;2023-03-23T06:41:39;28.43;;;17.97;;
43070;SDS011;36278;47.952;21.714;2023-03-23T06:44:05;26.23;;;18.27;;
43070;SDS011;36278;47.952;21.714;2023-03-23T06:46:38;29.73;;;18.55;;
43070;SDS011;36278;47.952;21.714;2023-03-23T06:49:04;25.17;;;17.53;;
43070;SDS011;36278;47.952;21.714;2023-03-23T06:51:30;23.50;;;17.77;;
43070;SDS011;36278;47.952;21.714;2023-03-23T06:53:55;27.43;;;18.10;;
43070;SDS011;36278;47.952;21.714;2023-03-23T06:56:22;23.97;;;17.83;;
43070;SDS011;36278;47.952;21.714;2023-03-23T06:58:48;28.27;;;16.80;;
43070;SDS011;36278;47.952;21.714;2023-03-23T07:01:14;20.23;;;17.43;;
43070;SDS011;36278;47.952;21.714;2023-03-23T07:03:41;27.27;;;17.53;;
43070;SDS011;36278;47.952;21.714;2023-03-23T07:06:07;24.07;;;16.60;;
43070;SDS011;36278;47.952;21.714;2023-03-23T07:08:34;28.93;;;18.17;;
43070;SDS011;36278;47.952;21.714;2023-03-23T07:11:00;25.67;;;16.93;;
43070;SDS011;36278;47.952;21.714;2023-03-23T07:13:26;20.90;;;16.23;;
43070;SDS011;36278;47.952;21.714;2023-03-23T07:15:52;25.53;;;16.70;;
43070;SDS011;36278;47.952;21.714;2023-03-23T07:18:18;22.53;;;15.97;;
43070;SDS011;36278;47.952;21.714;2023-03-23T07:20:51;23.83;;;15.93;;
43070;SDS011;36278;47.952;21.714;2023-03-23T07:23:17;22.23;;;15.98;;
43070;SDS011;36278;47.952;21.714;2023-03-23T07:25:44;21.30;;;16.00;;
43070;SDS011;36278;47.952;21.714;2023-03-23T07:28:13;21.57;;;16.73;;
43070;SDS011;36278;47.952;21.714;2023-03-23T07:30:38;23.00;;;16.33;;
43070;SDS011;36278;47.952;21.714;2023-03-23T07:33:05;21.20;;;15.47;;
43070;SDS011;36278;47.952;21.714;2023-03-23T07:35:31;21.27;;;15.90;;
43070;SDS011;36278;47.952;21.714;2023-03-23T07:37:57;20.27;;;15.10;;
43070;SDS011;36278;47.952;21.714;2023-03-23T07:40:23;22.20;;;15.57;;
43070;SDS011;36278;47.952;21.714;2023-03-23T07:42:53;20.80;;;15.50;;
43070;SDS011;36278;47.952;21.714;2023-03-23T07:45:20;22.23;;;15.43;;
43070;SDS011;36278;47.952;21.714;2023-03-23T07:47:47;19.63;;;15.83;;
43070;SDS011;36278;47.952;21.714;2023-03-23T07:50:12;19.83;;;15.77;;
43070;SDS011;36278;47.952;21.714;2023-03-23T07:52:39;21.70;;;13.67;;
43070;SDS011;36278;47.952;21.714;2023-03-23T07:55:07;24.37;;;14.67;;
43070;SDS011;36278;47.952;21.714;2023-03-23T07:57:46;20.97;;;14.97;;
43070;SDS011;36278;47.952;21.714;2023-03-23T08:00:14;22.77;;;14.20;;
43070;SDS011;36278;47.952;21.714;2023-03-23T08:02:47;17.67;;;13.90;;
43070;SDS011;36278;47.952;21.714;2023-03-23T08:05:15;21.57;;;15.10;;
43070;SDS011;36278;47.952;21.714;2023-03-23T08:07:41;15.97;;;12.00;;
43070;SDS011;36278;47.952;21.714;2023-03-23T08:10:08;17.37;;;12.93;;
43070;SDS011;36278;47.952;21.714;2023-03-23T08:12:38;18.47;;;13.13;;
43070;SDS011;36278;47.952;21.714;2023-03-23T08:15:05;21.40;;;13.20;;
43070;SDS011;36278;47.952;21.714;2023-03-23T08:17:32;14.30;;;10.73;;
43070;SDS011;36278;47.952;21.714;2023-03-23T08:19:59;14.97;;;10.43;;
43070;SDS011;36278;47.952;21.714;2023-03-23T08:22:25;13.90;;;10.57;;
43070;SDS011;36278;47.952;21.714;2023-03-23T08:24:51;15.20;;;10.20;;
43070;SDS011;36278;47.952;21.714;2023-03-23T08:27:17;17.27;;;10.53;;
43070;SDS011;36278;47.952;21.714;2023-03-23T08:29:46;14.80;;;10.90;;
43070;SDS011;36278;47.952;21.714;2023-03-23T08:32:13;11.10;;;9.77;;
43070;SDS011;36278;47.952;21.714;2023-03-23T08:34:38;14.70;;;10.27;;
43070;SDS011;36278;47.952;21.714;2023-03-23T08:37:04;11.90;;;10.07;;
43070;SDS011;36278;47.952;21.714;2023-03-23T08:39:30;13.77;;;9.67;;
43070;SDS011;36278;47.952;21.714;2023-03-23T08:41:55;14.60;;;9.93;;
43070;SDS011;36278;47.952;21.714;2023-03-23T08:44:21;12.30;;;9.30;;
43070;SDS011;36278;47.952;21.714;2023-03-23T08:46:47;11.53;;;8.73;;
43070;SDS011;36278;47.952;21.714;2023-03-23T08:49:12;10.90;;;8.53;;
43070;SDS011;36278;47.952;21.714;2023-03-23T08:51:38;13.60;;;9.23;;
43070;SDS011;36278;47.952;21.714;2023-03-23T08:54:05;13.57;;;8.53;;
43070;SDS011;36278;47.952;21.714;2023-03-23T08:56:32;9.50;;;7.07;;
43070;SDS011;36278;47.952;21.714;2023-03-23T08:58:58;11.63;;;7.60;;
43070;SDS011;36278;47.952;21.714;2023-03-23T09:01:24;9.30;;;7.23;;
43070;SDS011;36278;47.952;21.714;2023-03-23T09:03:49;10.73;;;7.00;;
43070;SDS011;36278;47.952;21.714;2023-03-23T09:06:15;8.40;;;6.73;;
43070;SDS011;36278;47.952;21.714;2023-03-23T09:08:41;11.50;;;5.83;;
43070;SDS011;36278;47.952;21.714;2023-03-23T09:11:08;8.07;;;6.30;;
43070;SDS011;36278;47.952;21.714;2023-03-23T09:13:37;9.07;;;6.60;;
43070;SDS011;36278;47.952;21.714;2023-03-23T09:16:04;11.20;;;6.93;;
43070;SDS011;36278;47.952;21.714;2023-03-23T09:18:30;9.13;;;6.80;;
43070;SDS011;36278;47.952;21.714;2023-03-23T09:20:57;12.43;;;6.40;;
43070;SDS011;36278;47.952;21.714;2023-03-23T09:23:24;10.10;;;7.17;;
43070;SDS011;36278;47.952;21.714;2023-03-23T09:25:50;10.27;;;7.10;;
43070;SDS011;36278;47.952;21.714;2023-03-23T09:28:17;10.73;;;7.03;;
43070;SDS011;36278;47.952;21.714;2023-03-23T09:30:43;13.37;;;6.87;;
43070;SDS011;36278;47.952;21.714;2023-03-23T09:33:10;10.93;;;6.30;;
43070;SDS011;36278;47.952;21.714;2023-03-23T09:35:36;15.47;;;6.40;;
43070;SDS011;36278;47.952;21.714;2023-03-23T09:38:04;11.23;;;6.67;;
43070;SDS011;36278;47.952;21.714;2023-03-23T09:43:49;7.60;;;6.03;;
43070;SDS011;36278;47.952;21.714;2023-03-23T09:54:22;6.50;;;5.30;;
43070;SDS011;36278;47.952;21.714;2023-03-23T09:56:53;8.40;;;5.47;;
43070;SDS011;36278;47.952;21.714;2023-03-23T09:59:29;9.20;;;5.77;;
43070;SDS011;36278;47.952;21.714;2023-03-23T10:04:46;9.83;;;6.10;;
43070;SDS011;36278;47.952;21.714;2023-03-23T10:07:16;8.07;;;5.22;;
43070;SDS011;36278;47.952;21.714;2023-03-23T10:09:44;7.20;;;5.10;;
43070;SDS011;36278;47.952;21.714;2023-03-23T10:12:23;8.57;;;5.73;;
43070;SDS011;36278;47.952;21.714;2023-03-23T10:17:29;9.50;;;5.93;;
43070;SDS011;36278;47.952;21.714;2023-03-23T10:22:53;9.10;;;5.35;;
43070;SDS011;36278;47.952;21.714;2023-03-23T10:25:27;10.53;;;5.57;;
43070;SDS011;36278;47.952;21.714;2023-03-23T10:30:40;8.05;;;5.30;;
43070;SDS011;36278;47.952;21.714;2023-03-23T10:36:07;6.17;;;4.27;;
43070;SDS011;36278;47.952;21.714;2023-03-23T10:41:13;8.67;;;4.97;;
43070;SDS011;36278;47.952;21.714;2023-03-23T10:43:41;12.83;;;4.87;;
43070;SDS011;36278;47.952;21.714;2023-03-23T10:46:29;7.80;;;4.13;;
43070;SDS011;36278;47.952;21.714;2023-03-23T10:49:06;5.87;;;4.40;;
43070;SDS011;36278;47.952;21.714;2023-03-23T10:51:37;6.88;;;4.05;;
43070;SDS011;36278;47.952;21.714;2023-03-23T10:54:10;6.47;;;4.50;;
43070;SDS011;36278;47.952;21.714;2023-03-23T10:56:39;7.07;;;4.60;;
43070;SDS011;36278;47.952;21.714;2023-03-23T10:59:18;5.57;;;4.03;;
43070;SDS011;36278;47.952;21.714;2023-03-23T11:02:10;8.52;;;4.25;;
43070;SDS011;36278;47.952;21.714;2023-03-23T11:04:44;7.97;;;4.25;;
43070;SDS011;36278;47.952;21.714;2023-03-23T11:07:16;6.20;;;3.63;;
43070;SDS011;36278;47.952;21.714;2023-03-23T11:09:53;6.25;;;4.13;;
43070;SDS011;36278;47.952;21.714;2023-03-23T11:12:21;8.27;;;4.63;;
43070;SDS011;36278;47.952;21.714;2023-03-23T11:14:48;5.47;;;3.42;;
43070;SDS011;36278;47.952;21.714;2023-03-23T11:17:24;5.15;;;3.50;;
43070;SDS011;36278;47.952;21.714;2023-03-23T11:19:52;9.43;;;4.28;;
43070;SDS011;36278;47.952;21.714;2023-03-23T11:22:27;7.55;;;4.40;;
43070;SDS011;36278;47.952;21.714;2023-03-23T11:24:59;6.82;;;4.10;;
43070;SDS011;36278;47.952;21.714;2023-03-23T11:27:26;6.47;;;3.90;;
43070;SDS011;36278;47.952;21.714;2023-03-23T11:29:58;8.20;;;3.70;;
43070;SDS011;36278;47.952;21.714;2023-03-23T11:32:34;7.90;;;3.60;;
43070;SDS011;36278;47.952;21.714;2023-03-23T11:35:02;6.18;;;3.83;;
43070;SDS011;36278;47.952;21.714;2023-03-23T11:37:40;5.30;;;3.33;;
43070;SDS011;36278;47.952;21.714;2023-03-23T11:53:31;3.67;;;3.20;;
43070;SDS011;36278;47.952;21.714;2023-03-23T11:56:11;4.38;;;2.85;;
43070;SDS011;36278;47.952;21.714;2023-03-23T11:58:37;3.67;;;2.90;;
43070;SDS011;36278;47.952;21.714;2023-03-23T12:03:39;5.97;;;2.90;;
43070;SDS011;36278;47.952;21.714;2023-03-23T12:09:43;5.47;;;3.10;;
43070;SDS011;36278;47.952;21.714;2023-03-23T12:23:23;4.15;;;2.65;;
43070;SDS011;36278;47.952;21.714;2023-03-23T12:31:52;6.13;;;2.90;;
43070;SDS011;36278;47.952;21.714;2023-03-23T12:44:54;6.07;;;2.90;;
43070;SDS011;36278;47.952;21.714;2023-03-23T12:47:31;6.32;;;3.10;;
43070;SDS011;36278;47.952;21.714;2023-03-23T12:52:30;7.55;;;3.17;;
43070;SDS011;36278;47.952;21.714;2023-03-23T12:55:06;5.93;;;2.80;;
43070;SDS011;36278;47.952;21.714;2023-03-23T12:57:55;5.03;;;2.80;;
43070;SDS011;36278;47.952;21.714;2023-03-23T13:00:29;10.57;;;2.72;;
43070;SDS011;36278;47.952;21.714;2023-03-23T13:03:07;4.90;;;2.80;;
43070;SDS011;36278;47.952;21.714;2023-03-23T13:05:44;5.70;;;2.80;;
43070;SDS011;36278;47.952;21.714;2023-03-23T13:10:50;5.45;;;2.50;;
43070;SDS011;36278;47.952;21.714;2023-03-23T13:13:39;3.33;;;2.58;;
43070;SDS011;36278;47.952;21.714;2023-03-23T13:21:33;7.47;;;2.50;;
43070;SDS011;36278;47.952;21.714;2023-03-23T13:24:04;5.78;;;2.58;;
43070;SDS011;36278;47.952;21.714;2023-03-23T13:26:37;2.90;;;2.30;;
43070;SDS011;36278;47.952;21.714;2023-03-23T13:29:11;2.67;;;1.98;;
43070;SDS011;36278;47.952;21.714;2023-03-23T13:31:39;5.07;;;2.10;;
43070;SDS011;36278;47.952;21.714;2023-03-23T13:39:26;4.15;;;2.22;;
43070;SDS011;36278;47.952;21.714;2023-03-23T13:42:01;5.55;;;2.00;;
43070;SDS011;36278;47.952;21.714;2023-03-23T13:44:38;6.28;;;2.42;;
43070;SDS011;36278;47.952;21.714;2023-03-23T13:47:27;4.65;;;2.65;;
43070;SDS011;36278;47.952;21.714;2023-03-23T13:50:02;6.43;;;2.45;;
43070;SDS011;36278;47.952;21.714;2023-03-23T14:10:54;7.38;;;2.65;;
43070;SDS011;36278;47.952;21.714;2023-03-23T14:16:20;5.90;;;2.30;;
43070;SDS011;36278;47.952;21.714;2023-03-23T14:18:55;2.45;;;2.20;;
43070;SDS011;36278;47.952;21.714;2023-03-23T14:21:42;2.80;;;2.28;;
43070;SDS011;36278;47.952;21.714;2023-03-23T14:24:21;3.15;;;2.20;;
43070;SDS011;36278;47.952;21.714;2023-03-23T14:26:49;3.38;;;2.45;;
43070;SDS011;36278;47.952;21.714;2023-03-23T14:29:17;3.03;;;2.38;;
43070;SDS011;36278;47.952;21.714;2023-03-23T14:31:45;6.45;;;2.60;;
43070;SDS011;36278;47.952;21.714;2023-03-23T14:34:21;8.38;;;2.58;;
43070;SDS011;36278;47.952;21.714;2023-03-23T14:36:51;5.72;;;2.50;;
43070;SDS011;36278;47.952;21.714;2023-03-23T14:39:20;4.07;;;2.72;;
43070;SDS011;36278;47.952;21.714;2023-03-23T14:41:56;6.05;;;2.70;;
43070;SDS011;36278;47.952;21.714;2023-03-23T14:44:32;3.88;;;2.30;;
43070;SDS011;36278;47.952;21.714;2023-03-23T14:47:06;6.03;;;3.03;;
43070;SDS011;36278;47.952;21.714;2023-03-23T14:49:40;4.70;;;2.47;;
43070;SDS011;36278;47.952;21.714;2023-03-23T14:52:10;4.50;;;2.55;;
43070;SDS011;36278;47.952;21.714;2023-03-23T14:54:36;6.07;;;2.33;;
43070;SDS011;36278;47.952;21.714;2023-03-23T14:57:11;4.00;;;2.50;;
43070;SDS011;36278;47.952;21.714;2023-03-23T14:59:45;6.70;;;2.72;;
43070;SDS011;36278;47.952;21.714;2023-03-23T15:02:28;8.00;;;2.65;;
43070;SDS011;36278;47.952;21.714;2023-03-23T15:05:14;6.65;;;2.42;;
43070;SDS011;36278;47.952;21.714;2023-03-23T15:07:47;5.57;;;2.78;;
43070;SDS011;36278;47.952;21.714;2023-03-23T15:10:18;5.03;;;2.63;;
43070;SDS011;36278;47.952;21.714;2023-03-23T15:12:47;2.90;;;2.28;;
43070;SDS011;36278;47.952;21.714;2023-03-23T15:15:35;5.53;;;2.50;;
43070;SDS011;36278;47.952;21.714;2023-03-23T15:18:01;6.53;;;2.30;;
43070;SDS011;36278;47.952;21.714;2023-03-23T15:20:47;9.93;;;2.60;;
43070;SDS011;36278;47.952;21.714;2023-03-23T15:23:15;5.82;;;2.97;;
43070;SDS011;36278;47.952;21.714;2023-03-23T15:25:47;6.25;;;2.67;;
43070;SDS011;36278;47.952;21.714;2023-03-23T15:28:17;7.10;;;2.80;;
43070;SDS011;36278;47.952;21.714;2023-03-23T15:30:48;3.72;;;2.85;;
43070;SDS011;36278;47.952;21.714;2023-03-23T15:33:16;5.28;;;2.72;;
43070;SDS011;36278;47.952;21.714;2023-03-23T15:35:49;4.28;;;2.65;;
43070;SDS011;36278;47.952;21.714;2023-03-23T15:40:51;4.22;;;2.90;;
43070;SDS011;36278;47.952;21.714;2023-03-23T15:43:21;7.97;;;3.42;;
43070;SDS011;36278;47.952;21.714;2023-03-23T15:48:31;6.13;;;3.45;;
43070;SDS011;36278;47.952;21.714;2023-03-23T15:50:59;5.82;;;3.20;;
43070;SDS011;36278;47.952;21.714;2023-03-23T15:53:35;5.55;;;3.60;;
43070;SDS011;36278;47.952;21.714;2023-03-23T15:56:06;6.60;;;4.05;;
43070;SDS011;36278;47.952;21.714;2023-03-23T15:58:33;6.68;;;4.18;;
43070;SDS011;36278;47.952;21.714;2023-03-23T16:01:03;8.43;;;4.60;;
43070;SDS011;36278;47.952;21.714;2023-03-23T16:03:38;6.83;;;3.80;;
43070;SDS011;36278;47.952;21.714;2023-03-23T16:06:10;10.27;;;4.30;;
43070;SDS011;36278;47.952;21.714;2023-03-23T16:08:36;20.53;;;16.17;;
43070;SDS011;36278;47.952;21.714;2023-03-23T16:11:05;12.63;;;8.93;;
43070;SDS011;36278;47.952;21.714;2023-03-23T16:13:34;11.57;;;3.90;;
43070;SDS011;36278;47.952;21.714;2023-03-23T16:15:59;10.83;;;3.30;;
43070;SDS011;36278;47.952;21.714;2023-03-23T16:18:25;6.43;;;3.40;;
43070;SDS011;36278;47.952;21.714;2023-03-23T16:20:50;10.63;;;4.10;;
43070;SDS011;36278;47.952;21.714;2023-03-23T16:23:16;7.90;;;3.63;;
43070;SDS011;36278;47.952;21.714;2023-03-23T16:25:42;7.50;;;3.27;;
43070;SDS011;36278;47.952;21.714;2023-03-23T16:28:09;7.63;;;3.17;;
43070;SDS011;36278;47.952;21.714;2023-03-23T16:30:39;7.83;;;3.30;;
43070;SDS011;36278;47.952;21.714;2023-03-23T16:33:05;4.87;;;3.00;;
43070;SDS011;36278;47.952;21.714;2023-03-23T16:35:31;9.10;;;3.10;;
43070;SDS011;36278;47.952;21.714;2023-03-23T16:37:57;7.73;;;3.40;;
43070;SDS011;36278;47.952;21.714;2023-03-23T16:40:23;8.20;;;3.03;;
43070;SDS011;36278;47.952;21.714;2023-03-23T16:42:49;5.17;;;3.37;;
43070;SDS011;36278;47.952;21.714;2023-03-23T16:45:15;4.83;;;2.97;;
43070;SDS011;36278;47.952;21.714;2023-03-23T16:47:42;8.20;;;3.63;;
43070;SDS011;36278;47.952;21.714;2023-03-23T16:50:09;8.47;;;3.40;;
43070;SDS011;36278;47.952;21.714;2023-03-23T16:52:37;6.10;;;3.10;;
43070;SDS011;36278;47.952;21.714;2023-03-23T16:55:04;8.03;;;3.53;;
43070;SDS011;36278;47.952;21.714;2023-03-23T16:57:31;7.13;;;3.70;;